Time;durP1;ratioP1;P1;durP2;ratioP2;P2;SDS_P1;SDS_P2;PMS_P1;PMS_P2;Temp;Humidity;BMP_temperature;BMP_pressure;BME280_temperature;BME280_humidity;BME280_pressure;Samples;Min_cycle;Max_cycle;Signal;HPM_P1;HPM_P2
2022/11/06 00:01:17;;;;;;;44.48;32.83;;;23.30;94.30;;;;;;1811604;78;21171;-81
2022/11/06 00:03:50;;;;;;;41.42;32.73;;;23.40;93.80;;;;;;1808176;78;21160;-81
2022/11/06 00:09:11;;;;;;;40.85;32.50;;;23.30;93.50;;;;;;1810490;78;21194;-81
2022/11/06 00:11:43;;;;;;;44.08;34.30;;;23.50;93.70;;;;;;1804804;78;21143;-81
2022/11/06 00:14:14;;;;;;;49.10;33.98;;;23.40;93.60;;;;;;1799174;78;21149;-80
2022/11/06 00:16:46;;;;;;;42.80;34.48;;;23.50;93.90;;;;;;1807746;78;21187;-83
2022/11/06 00:19:17;;;;;;;42.23;34.92;;;23.40;92.00;;;;;;1805862;78;21615;-81
2022/11/06 00:21:48;;;;;;;41.92;34.63;;;23.40;92.30;;;;;;1794875;78;21092;-84
2022/11/06 00:24:24;;;;;;;44.95;35.95;;;23.40;92.30;;;;;;1801746;78;21191;-82
2022/11/06 00:26:56;;;;;;;46.00;34.27;;;23.50;92.30;;;;;;1809244;78;21164;-83
2022/11/06 00:29:27;;;;;;;45.90;34.43;;;23.50;92.20;;;;;;1801214;78;21617;-82
2022/11/06 00:32:01;;;;;;;40.40;32.23;;;23.50;92.10;;;;;;1808986;78;21128;-82
2022/11/06 00:34:32;;;;;;;37.13;28.67;;;23.50;91.80;;;;;;1808353;78;21172;-80
2022/11/06 00:37:05;;;;;;;35.13;29.20;;;23.60;91.60;;;;;;1803259;78;21102;-81
2022/11/06 00:39:41;;;;;;;33.28;25.92;;;23.70;91.30;;;;;;1810199;78;21183;-82
2022/11/06 00:42:08;;;;;;;31.10;25.10;;;23.90;91.00;;;;;;1800265;77;21160;-82
2022/11/06 00:44:39;;;;;;;31.40;23.18;;;23.90;90.80;;;;;;1807927;78;21097;-82
2022/11/06 00:47:11;;;;;;;28.73;19.92;;;24.00;90.40;;;;;;1807450;77;21217;-83
2022/11/06 00:49:42;;;;;;;23.98;20.17;;;24.20;90.10;;;;;;1810094;77;21120;-84
2022/11/06 00:52:21;;;;;;;29.23;20.77;;;24.20;89.70;;;;;;1806869;78;21113;-84
2022/11/06 00:54:52;;;;;;;26.27;19.52;;;24.30;89.30;;;;;;1807774;78;21187;-83
2022/11/06 00:57:23;;;;;;;24.35;19.37;;;24.40;88.80;;;;;;1809893;78;21193;-83
2022/11/06 00:59:54;;;;;;;24.72;19.12;;;24.40;88.30;;;;;;1816409;78;21474;-84
2022/11/06 01:02:26;;;;;;;25.75;18.98;;;24.50;89.20;;;;;;1814165;78;21128;-83
2022/11/06 01:04:57;;;;;;;19.67;17.12;;;24.60;87.80;;;;;;1812332;78;21175;-82
2022/11/06 01:07:28;;;;;;;21.33;17.85;;;24.60;87.60;;;;;;1809543;78;21143;-82
2022/11/06 01:09:59;;;;;;;19.82;17.15;;;24.60;87.40;;;;;;1814977;78;21151;-84
2022/11/06 01:12:35;;;;;;;22.95;17.87;;;24.70;87.20;;;;;;1811515;78;21155;-83
2022/11/06 01:15:07;;;;;;;25.65;18.07;;;24.80;86.90;;;;;;1820549;78;21121;-83
2022/11/06 01:17:38;;;;;;;21.87;17.23;;;24.80;86.90;;;;;;1819771;78;21218;-85
2022/11/06 01:20:10;;;;;;;22.98;17.82;;;24.90;86.30;;;;;;1808634;78;21187;-86
2022/11/06 01:22:41;;;;;;;22.52;17.45;;;25.00;86.20;;;;;;1819450;78;21669;-82
2022/11/06 01:25:12;;;;;;;24.23;19.50;;;25.00;86.40;;;;;;1809050;78;21156;-84
2022/11/06 01:27:45;;;;;;;25.05;19.75;;;25.10;86.30;;;;;;1821263;78;21151;-83
2022/11/06 01:30:16;;;;;;;24.52;19.35;;;25.10;86.20;;;;;;1823156;78;21140;-82
2022/11/06 01:32:49;;;;;;;23.27;19.20;;;25.20;86.10;;;;;;1822344;78;21230;-83
2022/11/06 01:35:19;;;;;;;21.75;18.50;;;25.20;86.20;;;;;;1822321;78;21220;-82
2022/11/06 01:37:50;;;;;;;21.48;16.97;;;25.30;85.60;;;;;;1812227;78;21203;-82
2022/11/06 01:40:23;;;;;;;22.62;17.82;;;25.30;85.10;;;;;;1817285;78;21792;-83
2022/11/06 01:42:54;;;;;;;21.68;18.32;;;25.30;84.70;;;;;;1822781;78;21099;-83
2022/11/06 01:45:39;;;;;;;25.23;18.80;;;25.40;84.80;;;;;;1824514;78;21155;-83
2022/11/06 01:48:11;;;;;;;22.62;18.35;;;25.40;84.70;;;;;;1816534;78;21162;-82
2022/11/06 01:50:44;;;;;;;25.72;19.27;;;25.50;84.50;;;;;;1823500;78;21705;-83
2022/11/06 01:53:16;;;;;;;24.60;18.77;;;25.50;84.20;;;;;;1812528;78;21300;-82
2022/11/06 01:55:49;;;;;;;20.70;16.62;;;25.50;84.30;;;;;;1814053;78;21238;-83
2022/11/06 01:58:22;;;;;;;20.68;16.42;;;25.50;82.10;;;;;;1815055;78;21285;-82
2022/11/06 02:00:54;;;;;;;25.00;16.82;;;25.60;81.00;;;;;;1787800;78;21681;-83
2022/11/06 02:03:28;;;;;;;22.85;17.85;;;25.60;81.50;;;;;;1782578;80;21653;-83
2022/11/06 02:05:59;;;;;;;22.35;17.37;;;25.60;80.90;;;;;;1782286;80;21639;-83
2022/11/06 02:08:31;;;;;;;21.87;16.55;;;25.70;79.90;;;;;;1793417;78;21093;-81
2022/11/06 02:11:02;;;;;;;22.80;17.42;;;25.60;80.50;;;;;;1800920;79;21210;-83
2022/11/06 02:14:10;;;;;;;22.93;17.17;;;25.70;79.90;;;;;;1798398;79;21222;-81
2022/11/06 02:16:53;;;;;;;23.30;17.90;;;25.70;80.20;;;;;;1786192;79;21235;-82
2022/11/06 02:19:50;;;;;;;22.45;17.42;;;25.80;79.50;;;;;;1792778;79;21147;-80
2022/11/06 02:22:52;;;;;;;23.20;17.62;;;25.90;79.30;;;;;;1787876;80;21547;-81
2022/11/06 02:26:01;;;;;;;21.70;17.02;;;25.90;78.90;;;;;;1777204;79;21174;-82
2022/11/06 02:28:40;;;;;;;20.48;17.07;;;26.00;78.40;;;;;;1780175;79;21135;-81
2022/11/06 02:31:15;;;;;;;20.57;16.60;;;26.00;77.60;;;;;;1784290;80;21144;-81
2022/11/06 02:33:48;;;;;;;21.25;17.02;;;26.00;77.50;;;;;;1790263;80;21197;-81
2022/11/06 02:36:22;;;;;;;18.20;15.53;;;26.10;76.50;;;;;;1796595;79;21206;-82
2022/11/06 02:38:55;;;;;;;18.90;16.30;;;26.20;74.70;;;;;;1790400;80;21224;-81
2022/11/06 02:41:28;;;;;;;19.37;16.40;;;26.30;74.00;;;;;;1781137;79;21167;-82
2022/11/06 02:44:01;;;;;;;19.75;16.40;;;26.30;74.90;;;;;;1788941;79;21651;-81
2022/11/06 02:46:40;;;;;;;19.77;15.78;;;26.40;74.80;;;;;;1786934;79;21588;-81
2022/11/06 02:49:13;;;;;;;20.02;16.20;;;26.50;74.80;;;;;;1783049;79;21194;-82
2022/11/06 02:51:49;;;;;;;20.12;16.02;;;26.60;73.90;;;;;;1777355;79;21194;-82
2022/11/06 02:54:23;;;;;;;20.68;16.97;;;26.60;73.60;;;;;;1783119;79;21647;-82
2022/11/06 02:56:57;;;;;;;24.95;16.85;;;26.70;74.40;;;;;;1797564;79;21143;-80
2022/11/06 02:59:52;;;;;;;22.93;16.85;;;26.70;75.00;;;;;;1791957;78;21166;-81
2022/11/06 03:02:26;;;;;;;20.60;16.25;;;26.80;74.50;;;;;;1812622;78;21144;-81
2022/11/06 03:05:14;;;;;;;19.50;16.70;;;26.90;72.60;;;;;;1813011;78;22313;-83
2022/11/06 03:07:54;;;;;;;23.20;17.17;;;26.90;72.00;;;;;;1738574;78;21144;-81
2022/11/06 03:10:27;;;;;;;19.95;17.05;;;27.00;72.60;;;;;;1788246;79;21660;-82
2022/11/06 03:13:00;;;;;;;23.50;17.32;;;27.00;72.80;;;;;;1803376;78;21121;-81
2022/11/06 03:15:46;;;;;;;19.25;15.83;;;27.10;72.40;;;;;;1812591;78;21132;-82
2022/11/06 03:18:37;;;;;;;18.70;16.05;;;27.20;71.50;;;;;;1814679;78;21129;-80
2022/11/06 03:21:13;;;;;;;19.48;15.60;;;27.30;71.20;;;;;;1810260;78;21143;-81
2022/11/06 03:23:52;;;;;;;23.70;15.78;;;27.40;71.40;;;;;;1812245;78;21141;-82
2022/11/06 03:26:31;;;;;;;18.02;15.93;;;27.50;70.90;;;;;;1815187;78;21148;-82
2022/11/06 03:29:07;;;;;;;18.80;15.40;;;27.60;71.10;;;;;;1812532;78;21206;-82
2022/11/06 03:31:41;;;;;;;20.25;15.80;;;27.70;71.20;;;;;;1811703;78;21108;-82
2022/11/06 03:34:14;;;;;;;24.37;16.52;;;27.90;71.40;;;;;;1810932;78;21162;-83
2022/11/06 03:36:48;;;;;;;24.82;16.05;;;27.90;70.20;;;;;;1810562;79;21073;-81
2022/11/06 03:39:21;;;;;;;17.98;15.75;;;28.00;70.70;;;;;;1816500;78;21178;-81
2022/11/06 03:42:06;;;;;;;23.25;16.65;;;28.00;70.60;;;;;;1817215;77;21124;-81
2022/11/06 03:44:42;;;;;;;24.57;16.70;;;28.20;70.50;;;;;;1814385;78;21112;-81
2022/11/06 03:47:28;;;;;;;23.02;16.77;;;28.30;70.40;;;;;;1817980;78;21156;-82
2022/11/06 03:50:10;;;;;;;22.90;15.83;;;28.40;69.60;;;;;;1808785;79;21187;-80
2022/11/06 03:52:46;;;;;;;23.47;15.93;;;28.50;68.80;;;;;;1818086;77;21064;-80
2022/11/06 03:55:22;;;;;;;19.23;16.43;;;28.60;68.50;;;;;;1778524;80;21127;-81
2022/11/06 03:57:55;;;;;;;20.75;16.00;;;28.60;67.90;;;;;;1815214;78;21088;-81
2022/11/06 04:00:26;;;;;;;20.12;16.17;;;28.70;68.00;;;;;;1815110;78;21167;-80
2022/11/06 04:03:06;;;;;;;20.25;16.30;;;28.70;68.30;;;;;;1777820;80;21230;-83
2022/11/06 04:05:40;;;;;;;18.62;15.40;;;28.80;68.60;;;;;;1783004;79;21209;-82
2022/11/06 04:14:04;;;;;;;17.27;14.87;;;29.20;67.70;;;;;;1799717;79;21188;-80
2022/11/06 04:16:36;;;;;;;17.12;13.72;;;29.30;64.80;;;;;;1784625;79;21259;-82
2022/11/06 04:19:20;;;;;;;19.17;13.75;;;29.40;65.10;;;;;;1733111;82;21105;-80
2022/11/06 04:22:08;;;;;;;17.52;15.03;;;29.40;63.90;;;;;;1741360;82;21173;-80
2022/11/06 04:27:43;;;;;;;22.40;14.35;;;29.60;64.30;;;;;;1715626;82;21134;-81
2022/11/06 04:30:20;;;;;;;16.62;13.75;;;29.00;66.90;;;;;;1707851;83;21110;-80
2022/11/06 04:33:18;;;;;;;21.00;14.13;;;29.80;63.30;;;;;;1745775;82;21270;-81
2022/11/06 04:36:13;;;;;;;15.03;12.98;;;29.80;62.50;;;;;;1731506;80;21160;-82
2022/11/06 04:38:47;;;;;;;16.45;13.30;;;29.90;61.90;;;;;;1772644;80;21194;-83
2022/11/06 04:41:48;;;;;;;16.45;13.13;;;30.10;62.10;;;;;;1787523;79;21596;-82
2022/11/06 04:44:35;;;;;;;17.27;13.60;;;30.10;61.50;;;;;;1737772;82;21193;-81
2022/11/06 04:47:12;;;;;;;15.00;12.65;;;30.30;61.20;;;;;;1770771;79;21095;-83
2022/11/06 04:49:45;;;;;;;17.32;12.73;;;30.20;61.00;;;;;;1775807;79;21104;-80
2022/11/06 04:52:21;;;;;;;15.75;12.33;;;30.30;60.70;;;;;;1789033;79;21653;-81
2022/11/06 04:54:55;;;;;;;15.05;12.33;;;30.40;60.90;;;;;;1734454;81;21255;-81
2022/11/06 04:57:26;;;;;;;12.78;11.43;;;30.40;60.20;;;;;;1741811;81;21576;-81
2022/11/06 04:59:58;;;;;;;18.27;12.05;;;30.50;58.90;;;;;;1778714;80;21187;-81
2022/11/06 05:02:29;;;;;;;15.93;12.28;;;30.50;59.00;;;;;;1803243;78;21202;-81
2022/11/06 05:05:00;;;;;;;17.17;12.98;;;30.60;59.00;;;;;;1806358;78;21136;-80
2022/11/06 05:07:30;;;;;;;15.08;12.98;;;30.60;59.20;;;;;;1807560;78;21168;-81
2022/11/06 05:10:01;;;;;;;14.20;11.88;;;30.70;59.80;;;;;;1806938;78;21215;-80
2022/11/06 05:12:32;;;;;;;14.85;11.80;;;30.70;58.80;;;;;;1808133;78;21122;-82
2022/11/06 05:15:03;;;;;;;16.17;12.20;;;30.80;58.10;;;;;;1810845;78;21155;-82
2022/11/06 05:17:34;;;;;;;16.50;12.65;;;30.80;57.80;;;;;;1814992;78;21694;-82
2022/11/06 05:20:06;;;;;;;12.90;11.55;;;30.90;58.40;;;;;;1806280;79;21623;-81
2022/11/06 05:25:32;;;;;;;15.50;12.20;;;30.90;58.80;;;;;;1802227;78;21140;-81
2022/11/06 05:28:05;;;;;;;14.55;11.93;;;30.90;58.60;;;;;;1810111;78;21887;-80
2022/11/06 05:30:37;;;;;;;14.15;11.78;;;30.90;59.70;;;;;;1809092;78;21156;-80
2022/11/06 05:33:08;;;;;;;17.15;12.37;;;30.90;59.30;;;;;;1815439;78;21183;-81
2022/11/06 05:35:39;;;;;;;16.73;11.78;;;30.90;58.90;;;;;;1806317;79;21258;-81
2022/11/06 05:38:10;;;;;;;19.27;12.35;;;30.90;59.60;;;;;;1809301;78;21264;-80
2022/11/06 05:40:41;;;;;;;15.13;11.85;;;30.90;58.70;;;;;;1808377;78;21108;-80
2022/11/06 05:43:12;;;;;;;15.72;13.00;;;30.90;58.60;;;;;;1810113;78;21626;-80
2022/11/06 05:45:43;;;;;;;15.80;12.18;;;30.90;59.30;;;;;;1806311;79;21088;-81
2022/11/06 05:48:14;;;;;;;16.48;12.68;;;30.90;59.30;;;;;;1805125;78;21168;-81
2022/11/06 05:50:45;;;;;;;16.65;11.95;;;31.00;57.60;;;;;;1812613;78;21144;-82
2022/11/06 05:53:16;;;;;;;14.05;11.75;;;31.00;59.00;;;;;;1807643;78;21164;-81
2022/11/06 05:55:47;;;;;;;14.70;11.88;;;31.10;57.80;;;;;;1806482;79;21615;-82
2022/11/06 05:58:18;;;;;;;14.25;11.45;;;31.10;57.20;;;;;;1798541;78;21995;-81
2022/11/06 06:00:50;;;;;;;13.53;11.20;;;31.10;57.00;;;;;;1806319;78;21203;-81
2022/11/06 06:03:21;;;;;;;14.33;10.98;;;31.10;57.30;;;;;;1807108;78;21176;-81
2022/11/06 06:05:52;;;;;;;15.25;11.80;;;31.10;56.80;;;;;;1810397;78;21246;-81
2022/11/06 06:08:23;;;;;;;13.30;11.00;;;31.10;57.50;;;;;;1806534;78;21131;-81
2022/11/06 06:10:54;;;;;;;14.55;10.53;;;31.20;57.00;;;;;;1812138;78;21230;-80
2022/11/06 06:13:25;;;;;;;12.18;10.82;;;31.30;56.80;;;;;;1813633;78;21215;-82
2022/11/06 06:15:57;;;;;;;16.15;11.18;;;31.30;56.20;;;;;;1806793;78;21792;-81
2022/11/06 06:18:31;;;;;;;14.65;10.70;;;31.20;56.90;;;;;;1815789;78;21207;-82
2022/11/06 06:21:02;;;;;;;14.93;10.95;;;31.20;56.90;;;;;;1804479;79;21116;-81
2022/11/06 06:23:33;;;;;;;16.15;10.88;;;31.30;57.90;;;;;;1805928;79;21214;-81
2022/11/06 06:26:04;;;;;;;15.53;10.45;;;31.30;56.50;;;;;;1801330;78;21162;-82
2022/11/06 06:28:35;;;;;;;15.18;10.90;;;31.30;56.80;;;;;;1809115;78;21218;-81
2022/11/06 06:31:08;;;;;;;13.60;10.23;;;31.30;57.00;;;;;;1813855;78;21148;-82
2022/11/06 06:33:39;;;;;;;13.03;10.85;;;31.30;56.40;;;;;;1814388;78;21124;-79
2022/11/06 06:36:10;;;;;;;11.93;10.40;;;31.30;56.40;;;;;;1819076;78;21187;-80
2022/11/06 06:38:42;;;;;;;13.53;10.00;;;31.30;57.20;;;;;;1816036;78;21198;-81
2022/11/06 06:41:12;;;;;;;13.78;11.48;;;31.30;56.80;;;;;;1811400;78;21647;-81
2022/11/06 06:43:43;;;;;;;12.70;10.55;;;31.30;56.50;;;;;;1810571;78;21618;-81
2022/11/06 06:46:14;;;;;;;12.30;10.30;;;31.30;56.10;;;;;;1813862;78;21167;-78
2022/11/06 06:48:45;;;;;;;14.68;11.73;;;31.30;56.20;;;;;;1808474;78;21140;-80
2022/11/06 06:51:16;;;;;;;15.05;9.95;;;31.30;56.30;;;;;;1813133;78;21144;-82
2022/11/06 06:53:48;;;;;;;14.00;10.15;;;31.30;56.40;;;;;;1805117;78;21124;-82
2022/11/06 06:56:19;;;;;;;13.48;11.03;;;31.30;56.20;;;;;;1806970;78;21142;-82
2022/11/06 06:58:54;;;;;;;11.88;10.13;;;31.30;56.40;;;;;;1808414;78;21590;-81
2022/11/06 07:01:25;;;;;;;14.35;11.12;;;31.30;56.30;;;;;;1804736;78;21323;-79
2022/11/06 07:03:57;;;;;;;38.08;12.88;;;31.30;55.90;;;;;;1812032;78;21195;-81
2022/11/06 07:06:29;;;;;;;14.75;10.95;;;31.30;56.30;;;;;;1817503;78;21225;-81
2022/11/06 07:09:00;;;;;;;14.85;9.98;;;31.30;56.60;;;;;;1811029;78;21077;-82
2022/11/06 07:11:31;;;;;;;12.25;10.35;;;31.40;56.50;;;;;;1824363;78;21134;-83
2022/11/06 07:14:02;;;;;;;11.18;9.93;;;31.40;56.20;;;;;;1812738;78;21124;-82
2022/11/06 07:16:33;;;;;;;15.45;10.18;;;31.40;55.90;;;;;;1812276;79;21195;-82
2022/11/06 07:19:04;;;;;;;14.25;10.23;;;31.40;55.50;;;;;;1811662;78;21136;-81
2022/11/06 07:21:36;;;;;;;12.60;10.30;;;31.50;55.80;;;;;;1810849;78;21093;-81
2022/11/06 07:24:07;;;;;;;14.07;10.13;;;31.40;55.40;;;;;;1814029;78;21241;-82
2022/11/06 07:26:38;;;;;;;11.80;9.83;;;31.40;55.50;;;;;;1776051;80;21166;-80
2022/11/06 07:29:10;;;;;;;11.85;10.40;;;31.30;55.50;;;;;;1814762;78;21089;-82
2022/11/06 07:31:41;;;;;;;12.25;10.40;;;31.20;56.10;;;;;;1812191;78;21206;-80
2022/11/06 07:34:15;;;;;;;13.48;10.10;;;31.20;56.00;;;;;;1812030;78;21210;-82
2022/11/06 07:36:46;;;;;;;11.55;9.80;;;31.10;56.00;;;;;;1810994;78;21167;-80
2022/11/06 07:39:18;;;;;;;11.90;9.83;;;31.10;56.20;;;;;;1809117;78;21221;-81
2022/11/06 07:41:49;;;;;;;14.68;11.15;;;31.00;56.40;;;;;;1811666;78;21319;-81
2022/11/06 07:44:30;;;;;;;12.80;10.58;;;31.00;56.70;;;;;;1810792;78;21203;-83
2022/11/06 07:46:57;;;;;;;14.58;10.58;;;31.00;56.70;;;;;;1809213;78;21599;-81
2022/11/06 07:49:28;;;;;;;13.53;10.13;;;31.10;57.10;;;;;;1811106;78;21116;-81
2022/11/06 07:51:59;;;;;;;11.40;9.55;;;31.10;56.40;;;;;;1812213;78;21203;-81
2022/11/06 07:54:30;;;;;;;13.10;10.32;;;31.10;56.80;;;;;;1812938;78;21071;-82
2022/11/06 07:57:01;;;;;;;10.78;9.63;;;31.10;56.00;;;;;;1774823;80;21189;-80
2022/11/06 07:59:33;;;;;;;11.15;10.00;;;31.10;56.40;;;;;;1812410;79;21127;-81
2022/11/06 08:02:04;;;;;;;14.03;9.60;;;31.10;55.80;;;;;;1812486;79;21096;-77
2022/11/06 08:04:36;;;;;;;15.38;10.03;;;31.10;56.50;;;;;;1810093;77;21188;-79
2022/11/06 08:07:09;;;;;;;11.48;9.50;;;31.00;56.30;;;;;;1802524;79;21206;-83
2022/11/06 08:09:40;;;;;;;10.28;9.15;;;30.90;55.80;;;;;;1810058;78;21197;-80
2022/11/06 08:12:13;;;;;;;13.80;10.60;;;30.80;55.80;;;;;;1811915;79;21151;-80
2022/11/06 08:14:43;;;;;;;13.85;9.83;;;30.70;56.10;;;;;;1811308;77;21085;-80
2022/11/06 08:17:14;;;;;;;12.55;9.33;;;30.70;56.50;;;;;;1810567;79;21213;-79
2022/11/06 08:19:45;;;;;;;13.98;9.78;;;30.60;56.50;;;;;;1810867;78;21151;-81
2022/11/06 08:22:16;;;;;;;12.40;9.43;;;30.60;56.70;;;;;;1810548;78;21154;-80
2022/11/06 08:24:47;;;;;;;10.18;9.03;;;30.60;56.30;;;;;;1810132;78;21183;-79
2022/11/06 08:27:18;;;;;;;11.35;9.70;;;30.70;56.80;;;;;;1809920;77;21198;-80
2022/11/06 08:29:49;;;;;;;11.33;9.28;;;30.80;56.00;;;;;;1812195;77;21113;-81
2022/11/06 08:32:19;;;;;;;15.28;9.78;;;30.80;55.80;;;;;;1813803;77;21186;-81
2022/11/06 08:34:50;;;;;;;12.88;9.80;;;30.80;55.60;;;;;;1813322;77;21171;-82
2022/11/06 08:37:21;;;;;;;13.68;9.70;;;30.80;56.00;;;;;;1815239;77;21207;-79
2022/11/06 08:39:52;;;;;;;12.03;9.60;;;30.90;55.60;;;;;;1822544;77;21143;-78
2022/11/06 08:42:23;;;;;;;13.10;10.53;;;30.90;55.60;;;;;;1825121;77;21144;-79
2022/11/06 08:44:54;;;;;;;11.83;10.05;;;30.90;55.40;;;;;;1811831;77;21099;-81
2022/11/06 08:47:25;;;;;;;12.03;10.25;;;30.90;55.50;;;;;;1808656;78;21159;-77
2022/11/06 08:49:56;;;;;;;13.22;9.78;;;30.90;56.10;;;;;;1809775;78;21139;-81
2022/11/06 08:52:26;;;;;;;13.32;11.43;;;30.90;56.00;;;;;;1807701;77;21214;-79
2022/11/06 08:54:59;;;;;;;10.93;9.80;;;30.80;56.30;;;;;;1812468;78;21222;-80
2022/11/06 08:57:30;;;;;;;14.63;10.18;;;30.70;56.10;;;;;;1774223;81;21669;-81
2022/11/06 09:00:00;;;;;;;12.03;10.78;;;30.60;56.60;;;;;;1811716;78;21184;-81
2022/11/06 09:02:31;;;;;;;16.40;10.63;;;30.60;57.10;;;;;;1811640;78;21648;-80
2022/11/06 09:05:02;;;;;;;20.77;12.00;;;30.50;56.80;;;;;;1776115;79;21112;-81
2022/11/06 09:07:34;;;;;;;14.60;10.78;;;30.40;57.20;;;;;;1812736;78;21234;-80
2022/11/06 09:10:05;;;;;;;12.33;10.93;;;30.40;57.00;;;;;;1812313;78;21138;-80
2022/11/06 09:12:36;;;;;;;12.58;10.80;;;30.40;57.20;;;;;;1812439;77;21140;-81
2022/11/06 09:15:08;;;;;;;14.05;10.65;;;30.40;57.30;;;;;;1811941;77;21151;-82
2022/11/06 09:17:45;;;;;;;13.25;10.95;;;30.40;57.20;;;;;;1811968;77;21160;-82
2022/11/06 09:20:18;;;;;;;15.95;11.83;;;30.40;57.10;;;;;;1812108;77;21156;-81
2022/11/06 09:22:49;;;;;;;15.70;12.13;;;30.40;57.50;;;;;;1811468;77;21159;-80
2022/11/06 09:25:20;;;;;;;13.95;11.73;;;30.40;57.50;;;;;;1776004;79;21135;-80
2022/11/06 09:27:53;;;;;;;17.50;11.95;;;30.40;57.50;;;;;;1812761;77;21717;-81
2022/11/06 09:30:26;;;;;;;16.50;12.15;;;30.40;57.40;;;;;;1805864;79;21132;-80
2022/11/06 09:33:00;;;;;;;14.78;12.25;;;30.40;57.40;;;;;;1766824;79;21729;-80
2022/11/06 09:35:33;;;;;;;13.53;12.13;;;30.30;57.40;;;;;;1779957;79;21127;-82
2022/11/06 09:38:06;;;;;;;18.40;12.85;;;30.30;57.60;;;;;;1765891;80;21151;-83
2022/11/06 09:40:55;;;;;;;14.73;12.13;;;30.30;57.40;;;;;;1812058;78;21266;-83
2022/11/06 09:44:02;;;;;;;15.63;12.10;;;30.20;57.30;;;;;;1805213;78;21214;-81
2022/11/06 09:46:40;;;;;;;15.23;11.85;;;30.20;57.70;;;;;;1805977;79;21159;-81
2022/11/06 09:49:22;;;;;;;14.55;11.95;;;30.20;57.70;;;;;;1811229;78;21171;-82
2022/11/06 09:51:58;;;;;;;14.47;11.78;;;30.20;57.50;;;;;;1806655;78;21167;-81
2022/11/06 09:54:38;;;;;;;16.10;12.53;;;30.10;57.20;;;;;;1818657;78;22027;-81
2022/11/06 09:57:17;;;;;;;19.65;11.80;;;30.10;57.30;;;;;;1801228;78;21222;-80
2022/11/06 09:59:50;;;;;;;14.58;12.55;;;30.10;57.60;;;;;;1807056;78;21167;-82
2022/11/06 10:02:30;;;;;;;16.80;12.30;;;30.00;57.70;;;;;;1779441;79;21178;-82
2022/11/06 10:05:12;;;;;;;16.77;12.50;;;30.00;57.90;;;;;;1806751;78;21666;-84
2022/11/06 10:07:45;;;;;;;14.93;12.28;;;29.90;58.10;;;;;;1805779;78;21069;-83
2022/11/06 10:10:19;;;;;;;18.17;12.20;;;29.90;58.30;;;;;;1800481;79;21497;-84
2022/11/06 10:13:14;;;;;;;14.58;12.80;;;29.90;58.40;;;;;;1801237;78;21133;-82
2022/11/06 10:15:51;;;;;;;15.00;12.33;;;29.80;58.50;;;;;;1801483;78;21151;-82
2022/11/06 10:18:30;;;;;;;18.02;13.05;;;29.80;58.70;;;;;;1798698;80;21643;-82
2022/11/06 10:21:08;;;;;;;19.73;13.03;;;29.70;59.00;;;;;;1794704;79;21154;-83
2022/11/06 10:23:41;;;;;;;17.42;12.95;;;29.70;59.30;;;;;;1801173;77;21125;-81
2022/11/06 10:26:24;;;;;;;17.32;13.30;;;29.60;59.50;;;;;;1797430;78;21082;-83
2022/11/06 10:29:30;;;;;;;19.40;13.25;;;29.50;59.60;;;;;;1798409;78;21132;-79
2022/11/06 10:32:22;;;;;;;17.00;14.20;;;29.50;59.90;;;;;;1800130;78;21132;-80
2022/11/06 10:35:01;;;;;;;23.20;15.80;;;29.40;60.30;;;;;;1798421;80;21074;-81
2022/11/06 10:37:34;;;;;;;18.82;14.68;;;29.40;60.50;;;;;;1797841;79;21062;-81
2022/11/06 10:40:08;;;;;;;19.20;14.40;;;29.40;60.70;;;;;;1799342;78;21124;-82
2022/11/06 10:42:41;;;;;;;20.43;13.95;;;29.40;60.80;;;;;;1758094;81;21106;-82
2022/11/06 10:45:17;;;;;;;20.60;14.63;;;29.30;60.80;;;;;;1764067;80;21105;-81
2022/11/06 10:47:53;;;;;;;17.52;13.95;;;29.30;61.10;;;;;;1761515;81;21139;-82
2022/11/06 10:50:27;;;;;;;19.52;15.40;;;29.30;61.30;;;;;;1762317;81;21180;-82
2022/11/06 10:53:03;;;;;;;19.67;14.87;;;29.30;61.50;;;;;;1805575;78;21089;-82
2022/11/06 10:55:49;;;;;;;20.62;15.40;;;29.20;61.60;;;;;;1802503;78;21765;-81
2022/11/06 10:58:36;;;;;;;20.27;14.65;;;29.20;61.90;;;;;;1798413;78;21199;-81
2022/11/06 11:01:24;;;;;;;18.92;14.07;;;29.20;62.10;;;;;;1793372;78;21572;-80
2022/11/06 11:03:56;;;;;;;20.30;14.60;;;29.20;62.00;;;;;;1742303;80;21209;-81
2022/11/06 11:06:27;;;;;;;21.02;14.95;;;29.10;62.00;;;;;;1781106;80;21239;-80
2022/11/06 11:08:58;;;;;;;19.10;14.75;;;29.10;62.40;;;;;;1746387;81;21773;-81
2022/11/06 11:11:40;;;;;;;22.50;15.10;;;29.10;62.70;;;;;;1770894;79;21584;-80
2022/11/06 11:14:13;;;;;;;20.62;15.00;;;29.10;62.90;;;;;;1740452;81;21148;-81
2022/11/06 11:16:46;;;;;;;21.35;15.03;;;29.00;63.20;;;;;;1776136;80;21175;-80
2022/11/06 11:19:28;;;;;;;20.55;14.95;;;29.00;63.30;;;;;;1769322;79;21140;-80
2022/11/06 11:22:00;;;;;;;25.00;15.98;;;29.00;63.50;;;;;;1738247;80;21171;-80
2022/11/06 11:24:33;;;;;;;20.85;14.87;;;28.90;63.50;;;;;;1771939;79;21174;-81
2022/11/06 11:27:06;;;;;;;20.17;15.10;;;28.90;63.70;;;;;;1807199;78;21207;-81
2022/11/06 11:29:47;;;;;;;19.55;14.78;;;28.90;63.90;;;;;;1737204;81;21283;-81
2022/11/06 11:32:20;;;;;;;22.20;14.90;;;28.90;64.20;;;;;;1766209;80;21167;-82
2022/11/06 11:34:54;;;;;;;21.20;15.03;;;28.90;64.70;;;;;;1771472;79;21195;-81
2022/11/06 11:37:31;;;;;;;20.48;15.18;;;28.90;65.00;;;;;;1741107;81;21670;-82
2022/11/06 11:40:34;;;;;;;19.00;15.05;;;28.90;64.90;;;;;;1742783;81;21152;-81
2022/11/06 11:43:21;;;;;;;20.75;16.32;;;28.90;65.20;;;;;;1807533;79;21142;-80
2022/11/06 11:46:12;;;;;;;24.00;15.08;;;28.80;65.30;;;;;;1803196;79;21099;-80
2022/11/06 11:48:49;;;;;;;22.37;16.23;;;28.80;65.50;;;;;;1809825;79;21084;-82
2022/11/06 11:51:28;;;;;;;21.02;16.77;;;28.80;65.80;;;;;;1819228;78;21084;-82
2022/11/06 11:54:13;;;;;;;24.60;17.60;;;28.80;65.90;;;;;;1806834;78;21229;-82
2022/11/06 11:56:55;;;;;;;24.47;17.98;;;28.80;66.20;;;;;;1808710;78;21276;-81
2022/11/06 11:59:37;;;;;;;25.10;18.65;;;28.80;66.20;;;;;;1804724;79;21158;-81
2022/11/06 12:02:16;;;;;;;26.73;18.85;;;28.70;66.30;;;;;;1809995;78;21245;-82
2022/11/06 12:04:53;;;;;;;26.10;18.60;;;28.70;66.30;;;;;;1798742;78;21228;-83
2022/11/06 12:07:29;;;;;;;24.12;17.40;;;28.70;66.40;;;;;;1811311;79;21143;-81
2022/11/06 12:10:02;;;;;;;28.70;18.92;;;28.70;66.90;;;;;;1810865;79;21180;-81
2022/11/06 12:12:35;;;;;;;28.87;19.50;;;28.70;66.70;;;;;;1811932;78;21136;-82
2022/11/06 12:15:08;;;;;;;26.60;19.20;;;28.60;66.80;;;;;;1810995;79;21120;-82
2022/11/06 12:17:41;;;;;;;27.35;19.05;;;28.60;67.00;;;;;;1819555;78;21183;-83
2022/11/06 12:20:18;;;;;;;29.85;18.67;;;28.60;67.00;;;;;;1812571;78;21141;-82
2022/11/06 12:22:51;;;;;;;26.23;18.75;;;28.60;67.10;;;;;;1811736;78;21329;-82
2022/11/06 12:25:34;;;;;;;25.57;20.15;;;28.50;67.30;;;;;;1811616;79;21681;-82
2022/11/06 12:28:08;;;;;;;25.97;18.70;;;28.50;67.40;;;;;;1799938;79;21394;-82
2022/11/06 12:30:45;;;;;;;26.25;19.35;;;28.50;67.40;;;;;;1811736;78;21120;-83
2022/11/06 12:33:21;;;;;;;26.68;18.90;;;28.50;67.50;;;;;;1812864;78;21265;-82
2022/11/06 12:36:05;;;;;;;26.90;19.02;;;28.50;67.60;;;;;;1812986;77;21166;-80
2022/11/06 12:38:48;;;;;;;23.50;18.75;;;28.50;67.50;;;;;;1811918;78;21162;-81
2022/11/06 12:41:23;;;;;;;28.85;18.48;;;28.50;67.50;;;;;;1818152;78;21143;-82
2022/11/06 12:43:55;;;;;;;29.13;19.17;;;28.40;67.40;;;;;;1818282;78;21105;-81
2022/11/06 12:47:01;;;;;;;23.85;18.80;;;28.40;67.40;;;;;;1811661;78;21163;-81
2022/11/06 12:49:49;;;;;;;25.45;18.02;;;28.40;67.50;;;;;;1817880;78;21132;-81
2022/11/06 12:52:29;;;;;;;26.82;18.07;;;28.40;67.60;;;;;;1812528;78;21218;-83
2022/11/06 12:55:17;;;;;;;25.57;18.75;;;28.40;67.90;;;;;;1810081;78;21140;-80
2022/11/06 12:57:53;;;;;;;27.82;20.48;;;28.30;68.00;;;;;;1814582;78;21698;-78
2022/11/06 13:00:27;;;;;;;27.67;20.20;;;28.30;68.00;;;;;;1810318;78;21193;-81
2022/11/06 13:03:24;;;;;;;33.55;20.17;;;28.30;68.00;;;;;;1819031;78;21135;-80
2022/11/06 13:06:06;;;;;;;26.17;19.95;;;28.30;68.10;;;;;;1814102;78;21134;-81
2022/11/06 13:09:01;;;;;;;30.97;20.72;;;28.20;67.90;;;;;;1819353;78;21119;-80
2022/11/06 13:11:38;;;;;;;32.48;20.43;;;28.20;68.20;;;;;;1813190;79;21190;-80
2022/11/06 13:17:06;;;;;;;26.02;19.70;;;28.20;68.20;;;;;;1824674;77;21120;-81
2022/11/06 13:19:54;;;;;;;29.63;20.17;;;28.20;68.00;;;;;;1825867;77;21689;-81
2022/11/06 13:22:33;;;;;;;25.97;19.35;;;28.20;68.00;;;;;;1825338;77;21680;-81
2022/11/06 13:25:20;;;;;;;21.68;19.17;;;28.20;68.00;;;;;;1833578;77;21119;-81
2022/11/06 13:28:01;;;;;;;25.40;19.10;;;28.20;68.00;;;;;;1836272;77;21155;-82